createdAt,value
2018-04-27T00:00:05.209Z,8.99
2018-04-27T00:01:05.081Z,8.98
2018-04-27T00:02:58.560Z,8.98
2018-04-27T00:03:58.458Z,8.96
2018-04-27T00:05:51.998Z,8.96
2018-04-27T00:06:51.820Z,8.98
2018-04-27T00:08:45.744Z,8.99
2018-04-27T00:09:45.181Z,9.03
2018-04-27T00:11:38.593Z,9.01
2018-04-27T00:12:38.532Z,8.83
2018-04-27T00:14:31.951Z,8.96
2018-04-27T00:15:31.897Z,8.98
2018-04-27T00:17:25.386Z,9.03
2018-04-27T00:18:25.246Z,8.99
2018-04-27T00:20:18.677Z,8.99
2018-04-27T00:21:18.574Z,8.96
2018-04-27T00:23:12.012Z,8.99
2018-04-27T00:24:11.952Z,8.98
2018-04-27T00:26:05.602Z,8.95
2018-04-27T00:27:05.277Z,8.99
2018-04-27T00:28:58.693Z,8.90
2018-04-27T00:29:58.656Z,8.86
2018-04-27T00:31:52.077Z,8.86
2018-04-27T00:32:51.990Z,8.95
2018-04-27T00:34:45.769Z,8.83
2018-04-27T00:35:45.960Z,8.65
2018-04-27T00:37:39.294Z,8.75
2018-04-27T00:38:38.728Z,8.67
2018-04-27T00:40:32.216Z,8.80
2018-04-27T00:41:31.675Z,8.72
2018-04-27T00:43:25.290Z,8.70
2018-04-27T00:44:25.096Z,8.68
2018-04-27T00:46:21.236Z,8.62
2018-04-27T00:47:20.923Z,8.62
2018-04-27T00:49:14.367Z,8.55
2018-04-27T00:50:14.276Z,8.53
2018-04-27T00:52:07.720Z,8.41
2018-04-27T00:53:07.607Z,8.38
2018-04-27T00:55:01.062Z,8.35
2018-04-27T00:56:00.995Z,8.37
2018-04-27T00:57:54.549Z,8.37
2018-04-27T00:58:54.321Z,8.37
2018-04-27T01:00:47.808Z,8.24
2018-04-27T01:01:47.675Z,8.35
2018-04-27T01:03:43.868Z,8.38
2018-04-27T01:04:43.597Z,8.32
2018-04-27T01:06:36.954Z,8.31
2018-04-27T01:07:36.937Z,8.24
2018-04-27T01:09:30.423Z,8.19
2018-04-27T01:10:30.271Z,8.10
2018-04-27T01:12:23.641Z,8.13
2018-04-27T01:13:23.620Z,8.10
2018-04-27T01:15:17.097Z,8.05
2018-04-27T01:16:16.999Z,8.14
2018-04-27T01:18:10.434Z,8.06
2018-04-27T01:19:10.337Z,8.01
2018-04-27T01:21:03.409Z,8.06
2018-04-27T01:22:03.219Z,8.17
2018-04-27T01:23:56.581Z,8.04
2018-04-27T01:24:56.564Z,8.10
2018-04-27T01:26:51.120Z,8.09
2018-04-27T01:27:50.899Z,8.02
2018-04-27T01:29:44.014Z,8.10
2018-04-27T01:30:43.851Z,7.95
2018-04-27T01:32:37.202Z,7.88
2018-04-27T01:33:37.093Z,7.80
2018-04-27T01:35:31.563Z,7.78
2018-04-27T01:36:30.656Z,7.88
2018-04-27T01:38:43.240Z,8.01
2018-04-27T01:39:42.894Z,7.91
2018-04-27T01:41:36.336Z,7.80
2018-04-27T01:42:36.221Z,7.76
2018-04-27T01:44:29.636Z,7.84
2018-04-27T01:45:29.573Z,7.74
2018-04-27T01:47:22.976Z,7.74
2018-04-27T01:48:22.936Z,7.71
2018-04-27T01:50:16.892Z,7.66
2018-04-27T01:51:16.298Z,7.64
2018-04-27T01:53:09.702Z,7.74
2018-04-27T01:54:09.648Z,7.74
2018-04-27T01:56:03.040Z,7.66
2018-04-27T01:57:03.582Z,7.68
2018-04-27T01:58:56.540Z,7.66
2018-04-27T01:59:56.393Z,7.64
2018-04-27T02:01:49.743Z,7.71
2018-04-27T02:02:49.718Z,7.76
2018-04-27T02:04:44.441Z,7.73
2018-04-27T02:05:44.605Z,7.66
2018-04-27T02:07:37.486Z,7.71
2018-04-27T02:08:37.414Z,7.62
2018-04-27T02:10:31.072Z,7.66
2018-04-27T02:11:30.840Z,7.66
2018-04-27T02:13:31.432Z,7.69
2018-04-27T02:14:31.089Z,7.62
2018-04-27T02:16:51.849Z,7.64
2018-04-27T02:17:51.519Z,7.62
2018-04-27T02:19:44.553Z,7.66
2018-04-27T02:20:44.472Z,7.71
2018-04-27T02:22:37.924Z,7.73
2018-04-27T02:23:37.824Z,7.62
2018-04-27T02:25:31.566Z,7.66
2018-04-27T02:26:31.185Z,7.68
2018-04-27T02:28:24.824Z,7.73
2018-04-27T02:29:24.516Z,7.66
2018-04-27T02:31:18.495Z,7.80
2018-04-27T02:32:17.887Z,7.73
2018-04-27T02:34:11.281Z,7.80
2018-04-27T02:35:11.236Z,7.69
2018-04-27T02:37:04.928Z,7.78
2018-04-27T02:38:04.579Z,7.73
2018-04-27T02:39:58.609Z,7.81
2018-04-27T02:40:58.497Z,7.76
2018-04-27T02:42:51.667Z,7.81
2018-04-27T02:43:51.466Z,7.78
2018-04-27T02:45:49.602Z,8.01
2018-04-27T02:46:49.286Z,7.81
2018-04-27T02:48:42.725Z,7.83
2018-04-27T02:49:42.662Z,7.83
2018-04-27T02:51:36.351Z,7.99
2018-04-27T02:52:36.075Z,7.99
2018-04-27T02:54:30.648Z,8.04
2018-04-27T02:55:30.365Z,8.04
2018-04-27T02:57:23.801Z,8.05
2018-04-27T02:58:23.746Z,8.13
2018-04-27T03:00:17.139Z,8.09
2018-04-27T03:01:19.028Z,8.12
2018-04-27T03:03:10.811Z,8.04
2018-04-27T03:04:11.000Z,8.05
2018-04-27T03:06:03.833Z,8.06
2018-04-27T03:07:03.777Z,8.05
2018-04-27T03:09:00.464Z,8.05
2018-04-27T03:09:59.702Z,8.13
2018-04-27T03:11:53.182Z,8.09
2018-04-27T03:12:53.034Z,8.09
2018-04-27T03:14:46.251Z,8.13
2018-04-27T03:15:45.918Z,8.14
2018-04-27T03:17:39.245Z,8.06
2018-04-27T03:18:39.186Z,8.06
2018-04-27T03:20:32.622Z,8.06
2018-04-27T03:21:32.547Z,8.14
2018-04-27T03:23:26.007Z,8.13
2018-04-27T03:24:26.228Z,8.13
2018-04-27T03:26:19.354Z,8.12
2018-04-27T03:27:19.264Z,8.04
2018-04-27T03:29:12.703Z,8.01
2018-04-27T03:30:12.605Z,8.19
2018-04-27T03:32:06.014Z,8.20
2018-04-27T03:33:06.245Z,8.17
2018-04-27T03:35:18.526Z,8.28
2018-04-27T03:36:18.393Z,8.28
2018-04-27T03:38:12.582Z,8.29
2018-04-27T03:39:12.411Z,8.26
2018-04-27T03:41:05.267Z,8.38
2018-04-27T03:42:05.282Z,8.34
2018-04-27T03:44:00.662Z,8.42
2018-04-27T03:44:58.132Z,8.44
2018-04-27T03:46:51.616Z,8.44
2018-04-27T03:47:50.983Z,8.47
2018-04-27T03:49:43.830Z,8.46
2018-04-27T03:50:43.824Z,8.46
2018-04-27T03:52:36.724Z,8.49
2018-04-27T03:53:36.672Z,8.38
2018-04-27T03:55:30.087Z,8.38
2018-04-27T03:56:30.630Z,8.31
2018-04-27T03:58:23.491Z,8.24
2018-04-27T03:59:23.398Z,8.29
2018-04-27T04:01:16.753Z,8.26
2018-04-27T04:02:16.743Z,8.26
2018-04-27T04:04:09.615Z,8.21
2018-04-27T04:05:09.596Z,8.20
2018-04-27T04:07:02.986Z,8.26
2018-04-27T04:08:02.954Z,8.21
2018-04-27T04:09:56.351Z,8.17
2018-04-27T04:10:56.325Z,8.16
2018-04-27T04:12:49.179Z,8.14
2018-04-27T04:13:49.181Z,8.12
2018-04-27T04:15:42.109Z,7.98
2018-04-27T04:16:42.020Z,8.01
2018-04-27T04:18:35.006Z,8.17
2018-04-27T04:19:34.889Z,8.05
2018-04-27T04:21:28.263Z,8.16
2018-04-27T04:22:28.815Z,8.20
2018-04-27T04:24:21.109Z,8.20
2018-04-27T04:25:21.091Z,8.17
2018-04-27T04:27:14.475Z,8.14
2018-04-27T04:28:14.418Z,8.21
2018-04-27T04:30:07.905Z,8.26
2018-04-27T04:31:07.781Z,8.31
2018-04-27T04:33:01.170Z,8.26
2018-04-27T04:34:01.700Z,8.24
2018-04-27T04:35:56.095Z,8.31
2018-04-27T04:36:54.485Z,8.29
2018-04-27T04:38:48.039Z,8.26
2018-04-27T04:39:47.828Z,8.28
2018-04-27T04:41:41.006Z,8.34
2018-04-27T04:42:40.981Z,8.31
2018-04-27T04:44:34.105Z,8.28
2018-04-27T04:45:33.878Z,8.28
2018-04-27T04:47:26.747Z,8.32
2018-04-27T04:48:26.879Z,8.38
2018-04-27T04:50:20.687Z,8.28
2018-04-27T04:51:20.224Z,8.26
2018-04-27T04:53:13.668Z,8.34
2018-04-27T04:54:13.424Z,8.37
2018-04-27T04:56:09.328Z,8.52
2018-04-27T04:57:06.735Z,8.44
2018-04-27T04:59:00.260Z,8.47
2018-04-27T05:00:00.128Z,8.46
2018-04-27T05:01:53.783Z,8.56
2018-04-27T05:02:54.096Z,8.53
2018-04-27T05:04:47.043Z,8.59
2018-04-27T05:05:46.819Z,8.62
2018-04-27T05:07:41.253Z,8.63
2018-04-27T05:08:40.351Z,8.70
2018-04-27T05:10:33.781Z,8.86
2018-04-27T05:11:34.017Z,8.98
2018-04-27T05:13:27.149Z,9.11
2018-04-27T05:14:27.054Z,9.14
2018-04-27T05:16:20.208Z,9.34
2018-04-27T05:17:19.916Z,9.52
2018-04-27T05:19:14.847Z,9.72
2018-04-27T05:20:13.834Z,9.88
2018-04-27T05:22:07.264Z,10.23
2018-04-27T05:23:07.170Z,10.45
2018-04-27T05:25:00.378Z,10.62
2018-04-27T05:26:00.071Z,10.86
2018-04-27T05:27:58.596Z,11.15
2018-04-27T05:28:53.708Z,11.15
2018-04-27T05:30:47.335Z,11.23
2018-04-27T05:31:47.178Z,11.27
2018-04-27T05:33:40.669Z,11.28
2018-04-27T05:34:40.279Z,11.30
2018-04-27T05:36:35.231Z,11.23
2018-04-27T05:37:33.649Z,11.22
2018-04-27T05:39:27.259Z,11.13
2018-04-27T05:40:26.961Z,11.22
2018-04-27T05:42:20.381Z,11.28
2018-04-27T05:43:20.729Z,11.38
2018-04-27T05:45:14.094Z,11.43
2018-04-27T05:46:14.055Z,11.55
2018-04-27T05:48:08.168Z,11.52
2018-04-27T05:49:07.939Z,11.64
2018-04-27T05:51:01.336Z,11.62
2018-04-27T05:52:01.016Z,11.73
2018-04-27T05:53:57.250Z,11.87
2018-04-27T05:54:55.331Z,11.82
2018-04-27T05:56:50.071Z,11.87
2018-04-27T05:57:50.045Z,11.96
2018-04-27T05:59:43.476Z,11.96
2018-04-27T06:00:43.064Z,12.00
2018-04-27T06:02:36.820Z,12.08
2018-04-27T06:03:36.852Z,12.00
2018-04-27T06:05:31.202Z,12.18
2018-04-27T06:06:31.116Z,12.15
2018-04-27T06:08:24.343Z,12.17
2018-04-27T06:09:24.009Z,12.25
2018-04-27T06:11:20.782Z,12.43
2018-04-27T06:12:20.294Z,12.48
2018-04-27T06:14:13.693Z,12.65
2018-04-27T06:15:13.632Z,12.62
2018-04-27T06:17:07.107Z,12.79
2018-04-27T06:18:06.923Z,12.83
2018-04-27T06:20:00.471Z,12.77
2018-04-27T06:20:59.969Z,12.73
2018-04-27T06:22:53.638Z,12.80
2018-04-27T06:23:53.728Z,12.69
2018-04-27T06:25:47.745Z,12.66
2018-04-27T06:26:47.305Z,12.69
2018-04-27T06:28:40.392Z,12.61
2018-04-27T06:29:40.351Z,12.68
2018-04-27T06:31:33.824Z,12.61
2018-04-27T06:32:33.437Z,12.66
2018-04-27T06:34:27.180Z,12.65
2018-04-27T06:35:27.152Z,12.66
2018-04-27T06:37:20.587Z,12.76
2018-04-27T06:38:20.508Z,12.68
2018-04-27T06:40:13.985Z,12.87
2018-04-27T06:41:13.593Z,12.96
2018-04-27T06:43:07.419Z,13.23
2018-04-27T06:44:07.253Z,13.23
2018-04-27T06:46:01.217Z,13.04
2018-04-27T06:47:00.559Z,13.14
2018-04-27T06:48:53.987Z,13.17
2018-04-27T06:49:53.999Z,13.24
2018-04-27T06:51:47.399Z,13.26
2018-04-27T06:52:47.317Z,13.26
2018-04-27T06:54:40.761Z,13.46
2018-04-27T06:55:40.675Z,13.58
2018-04-27T06:57:36.687Z,13.72
2018-04-27T06:58:36.611Z,13.64
2018-04-27T07:00:30.017Z,13.80
2018-04-27T07:01:29.988Z,13.85
2018-04-27T07:03:23.007Z,13.82
2018-04-27T07:04:22.642Z,13.94
2018-04-27T07:06:17.385Z,13.94
2018-04-27T07:07:16.584Z,14.12
2018-04-27T07:09:09.348Z,14.16
2018-04-27T07:10:09.192Z,14.26
2018-04-27T07:12:02.617Z,14.30
2018-04-27T07:13:02.597Z,14.28
2018-04-27T07:14:56.004Z,14.40
2018-04-27T07:15:55.908Z,14.41
2018-04-27T07:17:48.538Z,14.52
2018-04-27T07:18:48.476Z,14.61
2018-04-27T07:20:43.710Z,14.71
2018-04-27T07:21:42.222Z,14.67
2018-04-27T07:23:39.147Z,14.70
2018-04-27T07:24:36.577Z,14.53
2018-04-27T07:26:30.903Z,14.55
2018-04-27T07:27:30.615Z,14.48
2018-04-27T07:29:23.523Z,14.63
2018-04-27T07:30:23.731Z,14.69
2018-04-27T07:32:17.943Z,14.73
2018-04-27T07:33:18.704Z,14.64
2018-04-27T07:35:10.300Z,14.85
2018-04-27T07:36:10.553Z,14.86
2018-04-27T07:38:03.989Z,14.99
2018-04-27T07:39:03.620Z,15.01
2018-04-27T07:40:57.843Z,15.11
2018-04-27T07:41:57.326Z,15.10
2018-04-27T07:43:50.689Z,15.38
2018-04-27T07:44:50.359Z,15.41
2018-04-27T07:46:44.144Z,15.66
2018-04-27T07:47:43.737Z,15.69
2018-04-27T07:49:37.534Z,15.87
2018-04-27T07:50:37.420Z,15.85
2018-04-27T07:52:31.860Z,15.84
2018-04-27T07:53:31.075Z,15.78
2018-04-27T07:55:24.183Z,15.99
2018-04-27T07:56:24.166Z,16.00
2018-04-27T07:58:17.172Z,16.09
2018-04-27T07:59:18.088Z,16.17
2018-04-27T08:01:10.524Z,16.32
2018-04-27T08:02:10.593Z,16.39
2018-04-27T08:04:03.956Z,16.62
2018-04-27T08:05:03.964Z,16.69
2018-04-27T08:06:57.296Z,16.62
2018-04-27T08:07:57.232Z,16.77
2018-04-27T08:09:51.177Z,16.90
2018-04-27T08:10:50.605Z,16.94
2018-04-27T08:12:44.598Z,16.99
2018-04-27T08:13:43.991Z,17.12
2018-04-27T08:15:36.886Z,17.16
2018-04-27T08:16:36.629Z,17.22
2018-04-27T08:18:31.298Z,17.27
2018-04-27T08:19:30.239Z,17.09
2018-04-27T08:21:23.657Z,17.13
2018-04-27T08:22:23.327Z,16.94
2018-04-27T08:24:17.673Z,17.07
2018-04-27T08:25:17.863Z,17.24
2018-04-27T08:27:13.576Z,17.28
2018-04-27T08:28:13.951Z,17.09
2018-04-27T08:30:06.876Z,17.20
2018-04-27T08:31:06.939Z,17.10
2018-04-27T08:33:00.306Z,17.31
2018-04-27T08:34:00.752Z,17.27
2018-04-27T08:35:53.664Z,17.37
2018-04-27T08:36:53.588Z,17.34
2018-04-27T08:38:47.009Z,17.35
2018-04-27T08:39:46.667Z,17.38
2018-04-27T08:41:40.399Z,17.24
2018-04-27T08:42:40.420Z,17.31
2018-04-27T08:44:33.785Z,17.35
2018-04-27T08:45:32.923Z,17.31
2018-04-27T08:47:28.131Z,17.28
2018-04-27T08:48:26.901Z,17.38
2018-04-27T08:50:20.097Z,17.35
2018-04-27T08:51:19.964Z,17.32
2018-04-27T08:53:12.877Z,17.31
2018-04-27T08:54:13.123Z,17.37
2018-04-27T08:56:06.405Z,17.35
2018-04-27T08:57:05.983Z,17.38
2018-04-27T08:58:59.752Z,17.49
2018-04-27T08:59:59.335Z,17.50
2018-04-27T09:01:52.844Z,17.37
2018-04-27T09:02:52.269Z,17.39
2018-04-27T09:04:45.924Z,17.50
2018-04-27T09:05:45.590Z,17.43
2018-04-27T09:07:39.255Z,17.20
2018-04-27T09:08:38.937Z,17.10
2018-04-27T09:10:32.767Z,17.10
2018-04-27T09:11:32.682Z,17.07
2018-04-27T09:13:27.134Z,17.10
2018-04-27T09:14:27.079Z,17.28
2018-04-27T09:16:20.238Z,17.34
2018-04-27T09:17:19.981Z,17.45
2018-04-27T09:19:13.295Z,17.45
2018-04-27T09:20:13.266Z,17.47
2018-04-27T09:22:06.672Z,17.38
2018-04-27T09:23:07.284Z,17.27
2018-04-27T09:25:00.152Z,17.37
2018-04-27T09:26:00.025Z,17.35
2018-04-27T09:27:55.983Z,17.37
2018-04-27T09:28:56.013Z,17.38
2018-04-27T09:30:49.953Z,17.62
2018-04-27T09:31:48.981Z,17.83
2018-04-27T09:33:42.700Z,18.01
2018-04-27T09:34:42.668Z,18.02
2018-04-27T09:36:36.732Z,18.17
2018-04-27T09:37:36.626Z,18.11
2018-04-27T09:39:29.957Z,18.17
2018-04-27T09:40:29.662Z,18.18
2018-04-27T09:42:23.413Z,17.93
2018-04-27T09:43:23.370Z,17.94
2018-04-27T09:45:16.986Z,17.91
2018-04-27T09:46:16.818Z,17.93
2018-04-27T09:48:12.754Z,17.94
2018-04-27T09:49:12.670Z,17.96
2018-04-27T09:51:06.152Z,17.88
2018-04-27T09:52:05.804Z,17.90
2018-04-27T09:54:01.563Z,17.91
2018-04-27T09:55:00.449Z,17.88
2018-04-27T09:56:55.820Z,17.88
2018-04-27T09:57:53.834Z,17.79
2018-04-27T09:59:47.181Z,17.83
2018-04-27T10:00:47.125Z,17.78
2018-04-27T10:02:42.783Z,17.90
2018-04-27T10:03:43.047Z,17.99
2018-04-27T10:05:36.467Z,18.20
2018-04-27T10:06:36.439Z,18.31
2018-04-27T10:08:30.351Z,18.42
2018-04-27T10:09:30.075Z,18.54
2018-04-27T10:11:23.251Z,18.56
2018-04-27T10:12:23.195Z,18.56
2018-04-27T10:14:16.167Z,18.56
2018-04-27T10:15:16.097Z,18.36
2018-04-27T10:17:09.591Z,18.52
2018-04-27T10:18:09.951Z,18.46
2018-04-27T10:20:02.945Z,18.24
2018-04-27T10:21:02.524Z,18.24
2018-04-27T10:22:55.879Z,18.30
2018-04-27T10:23:56.322Z,18.46
2018-04-27T10:25:49.414Z,18.42
2018-04-27T10:26:48.874Z,18.36
2018-04-27T10:28:42.533Z,18.45
2018-04-27T10:29:41.995Z,18.42
2018-04-27T10:31:35.394Z,18.41
2018-04-27T10:32:35.291Z,18.45
2018-04-27T10:34:28.747Z,18.34
2018-04-27T10:35:28.413Z,18.28
2018-04-27T10:37:22.139Z,18.20
2018-04-27T10:38:22.684Z,18.31
2018-04-27T10:40:15.785Z,18.46
2018-04-27T10:41:15.924Z,18.46
2018-04-27T10:43:09.043Z,18.74
2018-04-27T10:44:09.635Z,18.85
2018-04-27T10:46:02.168Z,18.83
2018-04-27T10:47:02.072Z,18.85
2018-04-27T10:48:56.063Z,19.04
2018-04-27T10:49:55.706Z,18.94
2018-04-27T10:51:49.938Z,19.04
2018-04-27T10:52:49.536Z,19.16
2018-04-27T10:54:42.505Z,19.15
2018-04-27T10:55:42.017Z,19.05
2018-04-27T10:57:35.185Z,19.20
2018-04-27T10:58:35.667Z,19.34
2018-04-27T11:00:28.073Z,19.41
2018-04-27T11:01:28.060Z,19.26
2018-04-27T11:03:21.471Z,19.30
2018-04-27T11:04:21.450Z,19.27
2018-04-27T11:06:15.866Z,19.32
2018-04-27T11:07:15.783Z,19.30
2018-04-27T11:09:09.170Z,19.39
2018-04-27T11:10:09.192Z,19.47
2018-04-27T11:12:02.549Z,19.32
2018-04-27T11:13:03.154Z,19.44
2018-04-27T11:14:55.466Z,19.34
2018-04-27T11:15:56.050Z,19.39
2018-04-27T11:17:51.312Z,19.56
2018-04-27T11:18:48.761Z,19.57
2018-04-27T11:20:42.181Z,19.52
2018-04-27T11:21:42.436Z,19.44
2018-04-27T11:23:35.847Z,19.47
2018-04-27T11:24:35.805Z,19.49
2018-04-27T11:26:28.980Z,19.26
2018-04-27T11:27:28.969Z,19.30
2018-04-27T11:29:22.550Z,19.31
2018-04-27T11:30:22.537Z,19.30
2018-04-27T11:32:15.755Z,19.41
2018-04-27T11:33:15.650Z,19.26
2018-04-27T11:35:09.152Z,19.31
2018-04-27T11:36:09.597Z,19.39
2018-04-27T11:38:03.012Z,19.32
2018-04-27T11:39:02.105Z,19.32
2018-04-27T11:40:55.312Z,19.44
2018-04-27T11:41:55.276Z,19.49
2018-04-27T11:43:50.206Z,19.32
2018-04-27T11:44:48.828Z,19.31
2018-04-27T11:46:41.269Z,19.19
2018-04-27T11:47:41.548Z,19.17
2018-04-27T11:49:34.916Z,19.27
2018-04-27T11:50:34.670Z,19.26
2018-04-27T11:52:30.380Z,19.22
2018-04-27T11:53:29.335Z,19.23
2018-04-27T11:55:22.995Z,19.27
2018-04-27T11:56:22.726Z,19.26
2018-04-27T11:58:16.071Z,19.30
2018-04-27T11:59:16.082Z,19.47
2018-04-27T12:01:10.006Z,19.19
2018-04-27T12:02:09.420Z,19.26
2018-04-27T12:04:02.307Z,19.07
2018-04-27T12:05:01.982Z,19.15
2018-04-27T12:06:55.296Z,19.08
2018-04-27T12:07:55.202Z,19.13
2018-04-27T12:09:48.607Z,18.98
2018-04-27T12:10:48.227Z,18.89
2018-04-27T12:12:41.935Z,18.97
2018-04-27T12:13:41.895Z,18.93
2018-04-27T12:15:35.972Z,19.00
2018-04-27T12:16:35.902Z,19.01
2018-04-27T12:18:28.969Z,19.04
2018-04-27T12:19:28.702Z,19.20
2018-04-27T12:21:22.090Z,19.15
2018-04-27T12:22:22.039Z,19.01
2018-04-27T12:24:16.770Z,19.05
2018-04-27T12:25:15.105Z,19.08
2018-04-27T12:27:10.110Z,19.05
2018-04-27T12:28:08.797Z,19.19
2018-04-27T12:30:02.213Z,19.22
2018-04-27T12:31:02.487Z,19.17
2018-04-27T12:32:55.569Z,19.15
2018-04-27T12:33:55.583Z,19.17
2018-04-27T12:35:49.003Z,19.30
2018-04-27T12:36:48.961Z,19.42
2018-04-27T12:38:42.360Z,19.32
2018-04-27T12:39:42.316Z,19.41
2018-04-27T12:41:35.250Z,19.30
2018-04-27T12:42:35.245Z,19.24
2018-04-27T12:44:29.333Z,19.23
2018-04-27T12:45:28.583Z,19.23
2018-04-27T12:47:22.020Z,19.22
2018-04-27T12:48:22.483Z,19.22
2018-04-27T12:50:15.347Z,19.32
2018-04-27T12:51:15.353Z,19.32
2018-04-27T12:53:08.696Z,19.31
2018-04-27T12:54:08.730Z,19.19
2018-04-27T12:56:03.217Z,19.15
2018-04-27T12:57:01.753Z,19.27
2018-04-27T12:58:57.771Z,19.26
2018-04-27T12:59:57.936Z,19.34
2018-04-27T13:01:51.449Z,19.42
2018-04-27T13:02:51.377Z,19.37
2018-04-27T13:04:44.251Z,19.44
2018-04-27T13:05:43.940Z,19.31
2018-04-27T13:07:37.653Z,19.23
2018-04-27T13:08:37.290Z,19.34
2018-04-27T13:10:31.964Z,19.39
2018-04-27T13:11:31.944Z,19.42
2018-04-27T13:13:26.966Z,19.47
2018-04-27T13:14:26.333Z,19.52
2018-04-27T13:16:19.802Z,19.67
2018-04-27T13:17:19.814Z,19.75
2018-04-27T13:19:17.347Z,19.67
2018-04-27T13:20:17.311Z,19.49
2018-04-27T13:22:11.050Z,19.59
2018-04-27T13:23:10.996Z,19.59
2018-04-27T13:25:03.882Z,19.74
2018-04-27T13:26:03.978Z,19.70
2018-04-27T13:27:57.283Z,19.57
2018-04-27T13:28:57.304Z,19.67
2018-04-27T13:30:51.194Z,19.53
2018-04-27T13:31:51.169Z,19.47
2018-04-27T13:33:44.588Z,19.47
2018-04-27T13:34:44.542Z,19.52
2018-04-27T13:36:40.030Z,19.56
2018-04-27T13:37:37.469Z,19.53
2018-04-27T13:39:30.841Z,19.57
2018-04-27T13:40:30.869Z,19.56
2018-04-27T13:42:25.461Z,19.45
2018-04-27T13:43:25.154Z,19.41
2018-04-27T13:45:18.539Z,19.30
2018-04-27T13:46:18.626Z,19.27
2018-04-27T13:48:11.964Z,19.26
2018-04-27T13:49:11.631Z,19.38
2018-04-27T13:51:06.342Z,19.45
2018-04-27T13:52:05.879Z,19.34
2018-04-27T13:53:59.797Z,19.31
2018-04-27T13:54:59.236Z,19.34
2018-04-27T13:56:55.180Z,19.39
2018-04-27T13:57:55.137Z,19.34
2018-04-27T13:59:49.650Z,19.34
2018-04-27T14:00:49.498Z,19.32
2018-04-27T14:02:42.527Z,19.38
2018-04-27T14:03:42.377Z,19.41
2018-04-27T14:05:35.864Z,19.38
2018-04-27T14:06:35.767Z,19.49
2018-04-27T14:08:28.710Z,19.49
2018-04-27T14:09:28.668Z,19.49
2018-04-27T14:11:22.159Z,19.45
2018-04-27T14:12:21.737Z,19.53
2018-04-27T14:14:15.415Z,19.47
2018-04-27T14:15:15.395Z,19.44
2018-04-27T14:17:08.798Z,19.27
2018-04-27T14:19:22.473Z,19.30
2018-04-27T14:20:22.116Z,19.27
2018-04-27T14:22:16.808Z,19.31
2018-04-27T14:23:15.552Z,19.26
2018-04-27T14:25:08.934Z,19.26
2018-04-27T14:26:09.153Z,19.39
2018-04-27T14:28:02.326Z,19.32
2018-04-27T14:29:01.968Z,19.45
2018-04-27T14:30:55.655Z,19.38
2018-04-27T14:31:55.920Z,19.31
2018-04-27T14:33:49.105Z,19.42
2018-04-27T14:34:48.721Z,19.38
2018-04-27T14:36:42.444Z,19.45
2018-04-27T14:37:42.394Z,19.30
2018-04-27T14:39:35.376Z,19.41
2018-04-27T14:40:35.287Z,19.32
2018-04-27T14:42:28.662Z,19.37
2018-04-27T14:43:28.708Z,19.31
2018-04-27T14:45:22.019Z,19.41
2018-04-27T14:46:22.022Z,19.34
2018-04-27T14:48:15.494Z,19.39
2018-04-27T14:49:15.031Z,19.42
2018-04-27T14:51:08.229Z,19.45
2018-04-27T14:52:07.963Z,19.35
2018-04-27T14:54:02.378Z,19.38
2018-04-27T14:55:01.593Z,19.31
2018-04-27T14:56:55.559Z,19.31
2018-04-27T14:57:55.231Z,19.34
2018-04-27T14:59:49.474Z,19.42
2018-04-27T15:00:49.056Z,19.42
2018-04-27T15:02:45.043Z,19.31
2018-04-27T15:03:42.266Z,19.44
2018-04-27T15:05:35.621Z,19.26
2018-04-27T15:06:35.597Z,19.24
2018-04-27T15:08:28.689Z,19.44
2018-04-27T15:09:28.987Z,19.41
2018-04-27T15:11:23.149Z,19.37
2018-04-27T15:12:22.324Z,19.41
2018-04-27T15:14:15.241Z,19.38
2018-04-27T15:15:15.796Z,19.37
2018-04-27T15:17:08.578Z,19.49
2018-04-27T15:18:08.586Z,19.41
2018-04-27T15:20:04.140Z,19.32
2018-04-27T15:21:02.954Z,19.41
2018-04-27T15:22:56.321Z,19.22
2018-04-27T15:23:56.355Z,19.41
2018-04-27T15:25:51.974Z,19.50
2018-04-27T15:26:49.654Z,19.44
2018-04-27T15:28:42.526Z,19.53
2018-04-27T15:29:42.573Z,19.49
2018-04-27T15:31:36.676Z,19.56
2018-04-27T15:32:36.893Z,19.56
2018-04-27T15:34:32.520Z,19.49
2018-04-27T15:35:30.007Z,19.41
2018-04-27T15:37:23.463Z,19.47
2018-04-27T15:38:23.777Z,19.47
2018-04-27T15:40:17.293Z,19.47
2018-04-27T15:41:17.156Z,19.53
2018-04-27T15:43:11.259Z,19.45
2018-04-27T15:44:10.553Z,19.47
2018-04-27T15:46:04.059Z,19.45
2018-04-27T15:47:03.497Z,19.47
2018-04-27T15:48:58.257Z,19.38
2018-04-27T15:49:56.910Z,19.30
2018-04-27T15:51:50.632Z,19.20
2018-04-27T15:52:50.609Z,19.24
2018-04-27T15:54:44.123Z,19.27
2018-04-27T15:55:43.942Z,19.34
2018-04-27T15:57:36.908Z,19.35
2018-04-27T15:58:37.440Z,19.39
2018-04-27T16:00:30.309Z,19.56
2018-04-27T16:01:30.228Z,19.59
2018-04-27T16:03:23.320Z,19.59
2018-04-27T16:04:23.668Z,19.64
2018-04-27T16:06:17.068Z,19.57
2018-04-27T16:07:16.715Z,19.56
2018-04-27T16:09:10.495Z,19.56
2018-04-27T16:10:10.451Z,19.63
2018-04-27T16:12:03.366Z,19.74
2018-04-27T16:13:02.962Z,19.86
2018-04-27T16:14:57.620Z,19.87
2018-04-27T16:15:57.573Z,20.00
2018-04-27T16:17:50.696Z,19.94
2018-04-27T16:18:50.985Z,19.87
2018-04-27T16:20:44.339Z,19.78
2018-04-27T16:21:45.829Z,19.72
2018-04-27T16:23:37.348Z,19.75
2018-04-27T16:24:37.210Z,19.70
2018-04-27T16:26:30.606Z,19.71
2018-04-27T16:27:30.602Z,19.67
2018-04-27T16:29:24.067Z,19.71
2018-04-27T16:30:23.987Z,19.72
2018-04-27T16:32:16.641Z,19.64
2018-04-27T16:33:17.401Z,19.70
2018-04-27T16:35:10.837Z,19.62
2018-04-27T16:36:10.466Z,19.64
2018-04-27T16:38:04.160Z,19.57
2018-04-27T16:39:03.875Z,19.59
2018-04-27T16:40:57.782Z,19.62
2018-04-27T16:41:58.165Z,19.59
2018-04-27T16:43:51.904Z,19.62
2018-04-27T16:44:51.860Z,19.56
2018-04-27T16:46:47.333Z,19.53
2018-04-27T16:47:44.761Z,19.50
2018-04-27T16:49:38.109Z,19.56
2018-04-27T16:50:37.834Z,19.56
2018-04-27T16:52:31.503Z,19.53
2018-04-27T16:53:31.466Z,19.54
2018-04-27T16:55:25.859Z,19.50
2018-04-27T16:56:25.879Z,19.49
2018-04-27T16:58:19.278Z,19.45
2018-04-27T16:59:19.231Z,19.47
2018-04-27T17:01:12.377Z,19.37
2018-04-27T17:02:12.130Z,19.44
2018-04-27T17:04:05.023Z,19.42
2018-04-27T17:05:05.014Z,19.45
2018-04-27T17:06:57.953Z,19.24
2018-04-27T17:07:57.884Z,19.37
2018-04-27T17:09:50.463Z,19.26
2018-04-27T17:10:50.438Z,19.32
2018-04-27T17:12:44.100Z,19.19
2018-04-27T17:13:44.074Z,19.15
2018-04-27T17:15:38.567Z,19.08
2018-04-27T17:16:36.928Z,19.07
2018-04-27T17:18:30.114Z,19.09
2018-04-27T17:19:30.400Z,19.05
2018-04-27T17:21:23.776Z,19.12
2018-04-27T17:22:23.716Z,19.05
2018-04-27T17:24:17.062Z,19.04
2018-04-27T17:25:17.044Z,19.01
2018-04-27T17:27:10.018Z,18.94
2018-04-27T17:28:09.725Z,18.89
2018-04-27T17:30:04.059Z,18.89
2018-04-27T17:31:04.302Z,18.93
2018-04-27T17:32:57.806Z,18.86
2018-04-27T17:33:57.236Z,18.82
2018-04-27T17:35:50.195Z,18.71
2018-04-27T17:36:50.116Z,18.74
2018-04-27T17:38:43.421Z,18.75
2018-04-27T17:39:43.518Z,18.67
2018-04-27T17:41:36.852Z,18.71
2018-04-27T17:42:36.767Z,18.60
2018-04-27T17:44:29.705Z,18.56
2018-04-27T17:45:29.402Z,18.57
2018-04-27T17:47:23.072Z,18.43
2018-04-27T17:48:22.756Z,18.42
2018-04-27T17:50:16.069Z,18.41
2018-04-27T17:51:16.190Z,18.31
2018-04-27T17:53:09.374Z,18.21
2018-04-27T17:54:09.250Z,18.26
2018-04-27T17:56:02.680Z,18.11
2018-04-27T17:57:02.403Z,18.13
2018-04-27T17:58:55.534Z,18.11
2018-04-27T17:59:55.243Z,17.93
2018-04-27T18:01:49.530Z,18.02
2018-04-27T18:02:48.904Z,18.06
2018-04-27T18:04:42.281Z,18.01
2018-04-27T18:05:42.017Z,17.93
2018-04-27T18:07:35.306Z,17.91
2018-04-27T18:08:34.948Z,17.87
2018-04-27T18:10:30.384Z,17.94
2018-04-27T18:11:29.353Z,17.86
2018-04-27T18:13:23.065Z,17.91
2018-04-27T18:14:22.719Z,17.90
2018-04-27T18:16:16.333Z,17.78
2018-04-27T18:17:16.056Z,17.86
2018-04-27T18:19:09.434Z,17.71
2018-04-27T18:20:09.422Z,17.63
2018-04-27T18:22:02.402Z,17.65
2018-04-27T18:23:02.628Z,17.54
2018-04-27T18:24:55.708Z,17.53
2018-04-27T18:25:55.674Z,17.43
2018-04-27T18:27:49.309Z,17.35
2018-04-27T18:28:49.054Z,17.38
2018-04-27T18:30:42.245Z,17.32
2018-04-27T18:32:55.620Z,17.22
2018-04-27T18:33:55.308Z,17.20
2018-04-27T18:35:49.162Z,17.01
2018-04-27T18:36:48.553Z,17.10
2018-04-27T18:38:41.985Z,16.98
2018-04-27T18:39:41.534Z,16.90
2018-04-27T18:41:36.364Z,16.94
2018-04-27T18:42:36.290Z,16.90
2018-04-27T18:44:29.168Z,16.83
2018-04-27T18:45:29.375Z,16.76
2018-04-27T18:47:25.161Z,16.88
2018-04-27T18:48:23.540Z,16.87